Time;durP1;ratioP1;P1;durP2;ratioP2;P2;SDS_P1;SDS_P2;PMS_P1;PMS_P2;Temp;Humidity;BMP_temperature;BMP_pressure;BME280_temperature;BME280_humidity;BME280_pressure;Samples;Min_cycle;Max_cycle;Signal;HPM_P1;HPM_P2
2023/10/20 00:01:31;;;;;;;14.68;13.18;;;;;;;15.35;90.69;98460.13;5098803;28;20044;-65
2023/10/20 00:03:57;;;;;;;15.80;13.02;;;;;;;15.33;90.85;98457.69;5092305;28;20016;-65
2023/10/20 00:06:22;;;;;;;15.10;13.10;;;;;;;15.32;90.89;98450.44;5092140;28;20058;-65
2023/10/20 00:08:47;;;;;;;13.52;12.23;;;;;;;15.32;90.87;98464.41;5107849;28;20032;-65
2023/10/20 00:11:13;;;;;;;16.52;14.13;;;;;;;15.30;90.72;98454.75;5092604;28;20028;-65
2023/10/20 00:13:38;;;;;;;14.00;12.30;;;;;;;15.28;91.16;98448.69;5091978;28;20039;-65
2023/10/20 00:16:07;;;;;;;14.35;12.85;;;;;;;15.28;91.23;98429.94;5090729;28;20899;-65
2023/10/20 00:18:32;;;;;;;16.55;12.82;;;;;;;15.26;91.22;98434.25;5090430;28;20494;-65
2023/10/20 00:20:58;;;;;;;14.20;12.70;;;;;;;15.25;91.43;98427.84;5091679;28;20098;-65
2023/10/20 00:23:23;;;;;;;14.43;12.73;;;;;;;15.28;91.41;98426.31;5092659;28;20121;-65
2023/10/20 00:25:49;;;;;;;14.77;12.80;;;;;;;15.25;91.37;98416.66;5109049;28;20051;-64
2023/10/20 00:28:14;;;;;;;14.55;13.07;;;;;;;15.27;91.54;98413.53;5109794;28;20027;-65
2023/10/20 00:30:40;;;;;;;17.23;11.95;;;;;;;15.24;91.63;98406.63;5089848;28;20026;-65
2023/10/20 00:33:08;;;;;;;15.27;12.57;;;;;;;15.27;91.41;98399.56;5091162;28;20150;-65
2023/10/20 00:35:37;;;;;;;14.27;12.73;;;;;;;15.27;91.44;98389.19;5104156;28;20534;-65
2023/10/20 00:38:03;;;;;;;13.57;12.38;;;;;;;15.25;91.59;98382.28;5105283;28;20028;-65
2023/10/20 00:40:28;;;;;;;13.75;12.35;;;;;;;15.28;91.56;98376.84;5091274;28;20024;-65
2023/10/20 00:42:54;;;;;;;13.80;12.43;;;;;;;15.27;91.44;98364.03;5091339;28;20797;-65
2023/10/20 00:45:19;;;;;;;14.07;12.73;;;;;;;15.26;91.45;98356.81;5106133;28;20026;-65
2023/10/20 00:47:45;;;;;;;14.52;13.02;;;;;;;15.28;91.41;98360.06;5094343;28;20479;-65
2023/10/20 00:50:13;;;;;;;13.70;12.40;;;;;;;15.26;91.30;98359.63;5090999;28;20047;-65
2023/10/20 00:52:44;;;;;;;14.95;13.40;;;;;;;15.25;91.25;98354.34;5109389;28;20028;-65
2023/10/20 00:55:14;;;;;;;15.50;13.80;;;;;;;15.23;91.32;98341.53;5109078;28;20047;-65
2023/10/20 00:57:42;;;;;;;15.13;13.48;;;;;;;15.22;91.62;98342.72;5090731;28;20028;-65
2023/10/20 01:00:09;;;;;;;15.00;13.55;;;;;;;15.26;91.15;98337.25;5090751;28;20130;-65
2023/10/20 01:02:36;;;;;;;15.52;13.93;;;;;;;15.19;91.29;98334.22;5090734;28;20114;-65
2023/10/20 01:05:05;;;;;;;14.65;13.18;;;;;;;15.21;91.34;98331.91;5093784;28;20029;-65
2023/10/20 01:07:31;;;;;;;15.68;14.07;;;;;;;15.20;91.22;98325.47;5091978;28;20475;-65
2023/10/20 01:10:00;;;;;;;16.27;14.68;;;;;;;15.19;91.47;98323.84;5091201;28;20115;-65
2023/10/20 01:12:26;;;;;;;17.40;14.90;;;;;;;15.18;91.28;98321.41;5090366;28;20039;-65
2023/10/20 01:14:51;;;;;;;15.73;14.10;;;;;;;15.20;91.19;98307.88;5090922;28;20028;-65
2023/10/20 01:17:16;;;;;;;16.40;14.02;;;;;;;15.19;91.17;98306.25;5111321;28;20031;-65
2023/10/20 01:19:41;;;;;;;16.27;14.40;;;;;;;15.20;91.28;98296.72;5106504;28;20091;-65
2023/10/20 01:22:07;;;;;;;17.40;14.35;;;;;;;15.18;91.46;98287.88;5091055;28;20497;-65
2023/10/20 01:24:32;;;;;;;16.35;14.52;;;;;;;15.14;91.47;98275.75;5094102;28;20036;-65
2023/10/20 01:26:57;;;;;;;16.17;14.50;;;;;;;15.15;91.09;98283.78;5090371;28;20064;-65
2023/10/20 01:29:23;;;;;;;17.17;15.15;;;;;;;15.16;91.40;98279.00;5089962;28;20047;-65
2023/10/20 01:31:49;;;;;;;16.48;14.27;;;;;;;15.12;91.53;98275.28;5096380;28;20516;-64
2023/10/20 01:34:17;;;;;;;16.58;13.93;;;;;;;15.13;91.59;98271.31;5107482;28;20053;-64
2023/10/20 01:36:42;;;;;;;16.98;14.43;;;;;;;15.12;91.74;98267.72;5099691;28;20104;-64
2023/10/20 01:39:08;;;;;;;17.67;15.30;;;;;;;15.13;91.62;98272.16;5103279;28;20028;-64
2023/10/20 01:41:34;;;;;;;17.02;15.40;;;;;;;15.10;91.68;98274.81;5090851;28;20088;-64
2023/10/20 01:43:59;;;;;;;16.88;15.02;;;;;;;15.12;91.78;98272.47;5100365;28;20032;-64
2023/10/20 01:46:24;;;;;;;16.23;14.45;;;;;;;15.15;91.47;98277.38;5101055;28;20031;-64
2023/10/20 01:48:49;;;;;;;16.30;14.52;;;;;;;15.16;91.32;98273.41;5110547;28;20114;-64
2023/10/20 01:51:15;;;;;;;18.02;14.18;;;;;;;15.17;91.49;98258.31;5101429;28;20036;-64
2023/10/20 01:53:40;;;;;;;16.13;14.52;;;;;;;15.13;91.71;98260.97;5097041;28;20046;-64
2023/10/20 01:56:05;;;;;;;18.77;14.93;;;;;;;15.17;91.54;98250.75;5094096;28;20020;-64
2023/10/20 01:58:31;;;;;;;18.45;15.07;;;;;;;15.15;91.30;98255.03;5094679;28;20099;-64
2023/10/20 02:00:57;;;;;;;17.83;15.32;;;;;;;15.14;91.44;98250.63;5094512;28;20020;-64
2023/10/20 02:03:22;;;;;;;18.85;15.48;;;;;;;15.14;91.34;98240.25;5093345;28;20028;-64
2023/10/20 02:05:47;;;;;;;18.63;15.20;;;;;;;15.17;91.42;98230.38;5094654;28;20024;-66
2023/10/20 02:08:13;;;;;;;18.38;16.38;;;;;;;15.14;91.42;98222.69;5092870;28;20024;-66
2023/10/20 02:10:40;;;;;;;18.30;14.98;;;;;;;15.15;91.43;98218.72;5093245;28;20426;-65
2023/10/20 02:13:05;;;;;;;16.35;14.73;;;;;;;15.14;91.39;98217.09;5098593;28;20058;-65
2023/10/20 02:15:31;;;;;;;17.95;15.30;;;;;;;15.14;91.41;98214.28;5096381;28;20020;-65
2023/10/20 02:17:56;;;;;;;17.05;15.25;;;;;;;15.14;91.53;98214.28;5094020;28;20038;-65
2023/10/20 02:20:24;;;;;;;17.55;15.75;;;;;;;15.16;91.37;98214.75;5093770;28;20507;-65
2023/10/20 02:22:50;;;;;;;17.65;15.50;;;;;;;15.13;91.46;98210.69;5092540;28;20074;-65
2023/10/20 02:25:16;;;;;;;18.60;16.67;;;;;;;15.14;91.67;98208.72;5099080;28;20027;-64
2023/10/20 02:27:45;;;;;;;17.88;16.05;;;;;;;15.13;91.21;98195.88;5114246;28;20479;-65
2023/10/20 02:30:12;;;;;;;18.00;16.10;;;;;;;15.11;91.69;98189.84;5101432;28;20031;-65
2023/10/20 02:32:38;;;;;;;18.38;16.48;;;;;;;15.10;91.79;98185.41;5093503;28;20352;-65
2023/10/20 02:35:03;;;;;;;19.23;17.15;;;;;;;15.09;91.98;98183.78;5096450;28;20050;-66
2023/10/20 02:37:29;;;;;;;18.98;16.63;;;;;;;15.08;91.92;98169.00;5097535;28;20071;-65
2023/10/20 02:39:54;;;;;;;17.80;16.08;;;;;;;15.08;92.05;98165.38;5092827;28;20573;-65
2023/10/20 02:42:19;;;;;;;19.60;17.60;;;;;;;15.08;92.05;98157.81;5093196;28;20039;-65
2023/10/20 02:44:45;;;;;;;18.70;16.70;;;;;;;15.10;91.95;98154.69;5092942;28;20543;-65
2023/10/20 02:47:10;;;;;;;18.80;17.00;;;;;;;15.07;91.96;98158.19;5105854;28;20024;-65
2023/10/20 02:49:35;;;;;;;19.38;17.15;;;;;;;15.07;92.00;98147.81;5108615;28;20060;-64
2023/10/20 02:52:01;;;;;;;18.48;16.33;;;;;;;15.06;92.19;98139.78;5092169;28;20024;-65
2023/10/20 02:54:26;;;;;;;17.92;16.15;;;;;;;14.99;92.55;98129.19;5093485;28;20032;-65
2023/10/20 02:56:54;;;;;;;17.50;15.35;;;;;;;15.01;92.71;98120.44;5093361;28;20024;-65
2023/10/20 02:59:20;;;;;;;19.73;16.55;;;;;;;15.04;92.53;98125.34;5092645;28;20027;-64
2023/10/20 03:01:45;;;;;;;17.55;15.85;;;;;;;15.04;92.44;98125.34;5093045;28;20032;-64
2023/10/20 03:04:10;;;;;;;17.27;15.48;;;;;;;15.06;92.52;98117.44;5092658;28;20926;-65
2023/10/20 03:06:35;;;;;;;17.48;15.77;;;;;;;15.06;92.43;98111.84;5095717;28;20019;-64
2023/10/20 03:09:03;;;;;;;17.85;16.10;;;;;;;15.04;92.43;98098.22;5099998;28;20035;-65
2023/10/20 03:11:29;;;;;;;17.80;15.90;;;;;;;15.06;92.55;98089.50;5108894;28;20047;-65
2023/10/20 03:13:54;;;;;;;19.65;16.00;;;;;;;15.07;92.35;98075.19;5113764;28;20074;-65
2023/10/20 03:16:20;;;;;;;17.95;15.30;;;;;;;15.06;92.43;98086.72;5113235;28;20022;-65
2023/10/20 03:18:45;;;;;;;16.98;14.98;;;;;;;15.10;92.28;98090.44;5108577;28;20031;-65
2023/10/20 03:21:11;;;;;;;17.02;14.98;;;;;;;15.10;92.18;98102.41;5102947;28;20024;-65
2023/10/20 03:23:36;;;;;;;18.83;15.48;;;;;;;15.09;92.21;98089.63;5093958;28;20083;-65
2023/10/20 03:26:05;;;;;;;18.48;16.65;;;;;;;15.09;92.35;98094.38;5096262;28;20040;-65
2023/10/20 03:28:30;;;;;;;18.05;16.27;;;;;;;15.11;92.24;98090.06;5092543;28;20474;-65
2023/10/20 03:31:04;;;;;;;18.85;16.48;;;;;;;15.09;92.13;98081.25;5092798;28;20103;-65
2023/10/20 03:33:29;;;;;;;18.33;16.52;;;;;;;15.07;92.26;98074.38;5091732;28;20035;-65
2023/10/20 03:36:00;;;;;;;17.92;15.93;;;;;;;15.09;92.28;98063.63;5092110;28;20020;-65
2023/10/20 03:38:25;;;;;;;18.17;16.15;;;;;;;15.07;92.06;98060.41;5092443;28;20082;-65
2023/10/20 03:40:50;;;;;;;20.70;17.35;;;;;;;15.07;92.06;98047.25;5091732;28;20027;-65
2023/10/20 03:43:16;;;;;;;18.55;16.75;;;;;;;15.05;92.05;98059.94;5091856;28;20028;-65
2023/10/20 03:45:48;;;;;;;17.95;16.05;;;;;;;15.08;92.09;98062.03;5102209;28;20032;-65
2023/10/20 03:48:13;;;;;;;19.23;16.40;;;;;;;15.08;91.83;98067.59;5091405;28;20482;-64
2023/10/20 03:50:42;;;;;;;19.27;17.27;;;;;;;15.07;92.07;98066.00;5105716;28;20023;-65
2023/10/20 03:53:07;;;;;;;20.67;17.13;;;;;;;15.05;91.96;98057.97;5111116;28;20098;-65
2023/10/20 03:55:33;;;;;;;19.35;17.38;;;;;;;15.03;91.87;98029.56;5100946;28;20060;-64
2023/10/20 03:57:59;;;;;;;21.35;17.80;;;;;;;15.05;92.01;98029.19;5092304;28;20103;-64
2023/10/20 04:00:36;;;;;;;20.00;17.90;;;;;;;15.04;92.02;98039.56;5093567;28;20069;-65
2023/10/20 04:03:02;;;;;;;21.50;17.85;;;;;;;15.04;91.66;98035.97;5094708;28;20393;-65
2023/10/20 04:05:28;;;;;;;20.25;17.35;;;;;;;14.98;91.79;98039.00;5108470;28;20023;-66
2023/10/20 04:07:53;;;;;;;20.13;17.40;;;;;;;15.01;91.59;98031.88;5095039;28;20051;-65
2023/10/20 04:10:19;;;;;;;20.13;16.38;;;;;;;15.01;91.69;98025.47;5091628;28;20115;-65
2023/10/20 04:12:45;;;;;;;19.58;17.17;;;;;;;15.00;91.67;98012.69;5096807;28;20110;-65
2023/10/20 04:15:19;;;;;;;21.95;16.67;;;;;;;15.02;91.92;98002.00;5108310;28;20149;-64
2023/10/20 04:17:51;;;;;;;18.02;16.08;;;;;;;15.00;91.70;98001.50;5097640;28;20031;-64
2023/10/20 04:20:18;;;;;;;19.23;17.23;;;;;;;15.00;91.71;97991.16;5097424;28;20035;-64
2023/10/20 04:22:44;;;;;;;20.60;16.73;;;;;;;15.00;91.64;97985.56;5094467;28;21826;-64
2023/10/20 04:25:13;;;;;;;20.45;16.95;;;;;;;15.01;91.52;97970.44;5095557;28;20491;-63
2023/10/20 04:57:40;;;;;;;20.67;18.42;;;;;;;14.90;91.40;97914.25;5090861;28;20046;-64
2023/10/20 05:05:17;;;;;;;21.20;18.88;;;;;;;14.89;91.31;97893.06;5094395;28;20058;-65
2023/10/20 05:07:50;;;;;;;23.27;19.15;;;;;;;14.85;91.58;97878.19;5102577;28;20020;-64
2023/10/20 05:10:15;;;;;;;21.30;19.17;;;;;;;14.81;91.30;97871.69;5098286;28;20031;-65
2023/10/20 05:12:41;;;;;;;21.48;19.23;;;;;;;14.82;91.91;97866.94;5109281;28;20039;-64
2023/10/20 05:15:13;;;;;;;20.88;18.67;;;;;;;14.82;91.92;97872.53;5098697;28;20428;-65
2023/10/20 05:17:39;;;;;;;21.73;19.42;;;;;;;14.79;91.58;97874.03;5095746;28;20043;-65
2023/10/20 05:20:05;;;;;;;22.92;19.73;;;;;;;14.82;91.84;97866.94;5095520;28;20037;-65
2023/10/20 05:22:31;;;;;;;21.98;19.27;;;;;;;14.84;91.73;97861.81;5095246;28;20035;-65
2023/10/20 05:24:57;;;;;;;23.40;20.92;;;;;;;14.84;91.57;97859.81;5110927;28;20040;-65
2023/10/20 05:27:24;;;;;;;23.00;20.65;;;;;;;14.81;91.67;97849.34;5110914;28;20553;-65
2023/10/20 05:29:50;;;;;;;23.42;20.88;;;;;;;14.78;91.80;97854.84;5108154;28;20036;-65
2023/10/20 05:32:16;;;;;;;23.35;20.92;;;;;;;14.78;91.92;97852.88;5104078;28;20035;-65
2023/10/20 05:34:41;;;;;;;23.10;20.90;;;;;;;14.80;92.00;97861.69;5093130;28;20055;-65
2023/10/20 05:37:06;;;;;;;22.25;19.90;;;;;;;14.82;91.65;97873.34;5100928;28;21735;-65
2023/10/20 05:39:32;;;;;;;22.83;20.58;;;;;;;14.83;91.54;97869.38;5098925;28;20032;-65
2023/10/20 05:41:57;;;;;;;24.70;22.30;;;;;;;14.83;91.66;97879.72;5096380;28;20028;-65
2023/10/20 05:44:23;;;;;;;23.88;21.35;;;;;;;14.84;91.78;97868.19;5094908;28;20024;-65
2023/10/20 05:46:49;;;;;;;25.70;23.13;;;;;;;14.81;92.08;97854.94;5110326;28;20107;-65
2023/10/20 05:49:15;;;;;;;28.27;24.27;;;;;;;14.80;91.82;97858.09;5114810;28;20055;-65
2023/10/20 05:51:40;;;;;;;26.30;23.55;;;;;;;14.81;91.96;97854.94;5104280;28;20088;-65
2023/10/20 05:54:06;;;;;;;24.98;22.45;;;;;;;14.80;92.08;97853.31;5093026;28;20032;-66
2023/10/20 05:56:31;;;;;;;27.60;23.13;;;;;;;14.81;91.92;97854.94;5093907;28;20054;-64
2023/10/20 05:58:56;;;;;;;26.40;23.73;;;;;;;14.85;92.13;97849.47;5091955;28;20021;-66
2023/10/20 06:01:21;;;;;;;26.92;23.95;;;;;;;14.83;91.85;97835.06;5092869;28;20073;-64
2023/10/20 06:03:47;;;;;;;27.85;25.05;;;;;;;14.82;91.88;97837.03;5099432;28;20036;-64
2023/10/20 06:06:12;;;;;;;27.35;24.60;;;;;;;14.83;91.74;97830.28;5093351;28;20255;-64
2023/10/20 06:08:37;;;;;;;26.88;24.08;;;;;;;14.84;91.50;97828.28;5090032;28;20024;-64
2023/10/20 06:11:04;;;;;;;27.77;24.95;;;;;;;14.82;91.88;97823.06;5090768;28;20547;-63
2023/10/20 06:13:35;;;;;;;26.48;23.05;;;;;;;14.78;91.88;97824.97;5090973;28;20031;-64
2023/10/20 06:16:10;;;;;;;25.88;23.20;;;;;;;14.82;91.88;97825.88;5091450;28;20048;-64
2023/10/20 06:18:37;;;;;;;23.27;20.83;;;;;;;14.83;91.69;97846.22;5096605;28;20055;-64
2023/10/20 06:21:04;;;;;;;23.77;21.48;;;;;;;14.84;91.84;97851.44;5090671;28;20059;-64
2023/10/20 06:23:32;;;;;;;24.52;22.17;;;;;;;14.81;91.63;97854.94;5104713;28;20132;-64
2023/10/20 06:25:58;;;;;;;23.67;21.20;;;;;;;14.81;91.82;97832.59;5105427;28;20085;-64
2023/10/20 06:28:24;;;;;;;22.63;20.33;;;;;;;14.82;91.62;97819.47;5097101;28;20040;-64
2023/10/20 06:30:51;;;;;;;22.25;20.08;;;;;;;14.82;91.67;97817.50;5092799;28;20131;-63
2023/10/20 06:33:16;;;;;;;23.00;20.55;;;;;;;14.79;91.62;97823.78;5098690;28;20019;-64
2023/10/20 06:35:51;;;;;;;21.35;19.05;;;;;;;14.81;91.97;97831.78;5097759;28;20057;-63
2023/10/20 06:41:04;;;;;;;22.30;20.02;;;;;;;14.80;91.83;97836.56;5107060;28;20128;-63
2023/10/20 06:43:30;;;;;;;23.08;20.77;;;;;;;14.76;91.81;97837.63;5092327;28;20450;-63
2023/10/20 06:45:56;;;;;;;14.35;12.65;;;;;;;14.88;91.39;97835.59;5095004;28;20759;-64
2023/10/20 06:48:24;;;;;;;22.52;20.05;;;;;;;14.82;91.74;97819.47;5095483;28;20035;-63
2023/10/20 06:50:50;;;;;;;23.13;20.67;;;;;;;14.82;91.65;97809.13;5100874;28;20016;-64
2023/10/20 06:53:15;;;;;;;23.98;21.58;;;;;;;14.83;91.75;97819.09;5092672;28;20397;-65
2023/10/20 06:55:44;;;;;;;24.45;22.15;;;;;;;14.81;91.96;97824.22;5101566;28;20016;-62
2023/10/20 06:58:10;;;;;;;23.92;21.63;;;;;;;14.80;92.09;97822.59;5100136;28;20028;-64
2023/10/20 07:00:36;;;;;;;25.02;22.50;;;;;;;14.81;91.91;97810.25;5090243;28;20127;-64
2023/10/20 07:03:04;;;;;;;23.83;21.55;;;;;;;14.74;92.35;97810.09;5104193;28;20119;-64
2023/10/20 07:05:32;;;;;;;25.77;22.05;;;;;;;14.76;92.57;97812.50;5105157;28;20027;-64
2023/10/20 07:07:59;;;;;;;23.25;21.15;;;;;;;14.71;92.68;97814.38;5112281;28;20497;-64
2023/10/20 07:10:27;;;;;;;25.23;22.77;;;;;;;14.68;92.93;97812.28;5100634;28;20425;-65
2023/10/20 07:12:52;;;;;;;24.90;22.05;;;;;;;14.67;93.24;97812.66;5092625;28;20061;-65
2023/10/20 07:15:17;;;;;;;22.98;20.80;;;;;;;14.70;93.37;97806.38;5093222;28;20031;-65
2023/10/20 07:17:43;;;;;;;24.25;21.90;;;;;;;14.70;93.16;97806.38;5088726;28;20440;-65
2023/10/20 07:20:08;;;;;;;21.98;19.85;;;;;;;14.72;93.35;97813.22;5095007;28;20444;-65
2023/10/20 07:22:40;;;;;;;21.30;19.30;;;;;;;14.72;93.21;97806.81;5092108;28;20659;-65
2023/10/20 07:25:05;;;;;;;21.23;19.27;;;;;;;14.74;92.92;97801.72;5090524;28;20027;-65
2023/10/20 07:27:31;;;;;;;20.45;18.60;;;;;;;14.75;92.98;97799.72;5097894;28;20521;-65
2023/10/20 07:29:57;;;;;;;20.58;18.48;;;;;;;14.73;93.33;97802.84;5101767;28;20034;-65
2023/10/20 07:32:22;;;;;;;19.13;17.27;;;;;;;14.72;93.29;97806.81;5106365;28;20493;-65
2023/10/20 07:34:48;;;;;;;19.50;17.75;;;;;;;14.70;93.54;97807.19;5091533;28;20027;-65
2023/10/20 07:37:13;;;;;;;18.63;16.90;;;;;;;14.72;93.52;97801.22;5094133;28;20056;-63
2023/10/20 07:39:39;;;;;;;19.73;17.73;;;;;;;14.74;93.17;97807.28;5092257;28;20115;-65
2023/10/20 07:42:05;;;;;;;18.77;16.92;;;;;;;14.72;93.54;97807.63;5093572;28;20020;-65
2023/10/20 07:44:30;;;;;;;19.17;17.33;;;;;;;14.72;93.40;97796.47;5102200;28;20093;-65
2023/10/20 07:46:55;;;;;;;17.55;15.85;;;;;;;14.71;93.32;97794.84;5097053;28;20217;-65
2023/10/20 07:49:21;;;;;;;16.80;15.30;;;;;;;14.71;93.64;97788.44;5102535;28;20486;-65
2023/10/20 07:51:47;;;;;;;17.63;16.02;;;;;;;14.71;93.87;97782.88;5089973;28;20032;-65
2023/10/20 07:54:12;;;;;;;16.38;14.98;;;;;;;14.72;93.48;97784.47;5100372;28;20027;-66
2023/10/20 07:56:38;;;;;;;16.73;15.15;;;;;;;14.72;93.55;97790.06;5093945;28;20024;-65
2023/10/20 07:59:07;;;;;;;14.85;12.75;;;;;;;14.69;93.33;97769.25;5097364;28;20032;-65
2023/10/20 08:01:33;;;;;;;15.27;13.88;;;;;;;14.68;93.87;97764.03;5092268;28;20028;-65
2023/10/20 08:03:58;;;;;;;14.95;13.60;;;;;;;14.65;93.71;97761.94;5090456;28;20035;-65
2023/10/20 08:06:24;;;;;;;15.60;14.13;;;;;;;14.65;93.95;97757.16;5090397;28;20027;-65
2023/10/20 08:08:49;;;;;;;15.18;13.77;;;;;;;14.64;93.86;97754.75;5088573;28;20032;-65
2023/10/20 08:11:15;;;;;;;13.68;12.30;;;;;;;14.64;93.69;97754.75;5089658;28;20031;-66
2023/10/20 08:13:41;;;;;;;13.07;11.88;;;;;;;14.60;93.32;97760.22;5089128;28;20046;-65
2023/10/20 08:16:07;;;;;;;12.25;11.13;;;;;;;14.59;93.84;97763.38;5091494;28;20027;-65
2023/10/20 08:18:33;;;;;;;12.38;11.15;;;;;;;14.57;93.90;97762.91;5090177;28;20029;-66
2023/10/20 08:21:09;;;;;;;13.05;10.45;;;;;;;14.60;94.16;97770.56;5089219;28;20032;-65
2023/10/20 08:23:37;;;;;;;11.02;9.93;;;;;;;14.62;94.01;97766.28;5090253;28;20440;-65
2023/10/20 08:26:02;;;;;;;11.23;10.05;;;;;;;14.62;93.43;97762.66;5089833;28;20048;-65
2023/10/20 08:28:28;;;;;;;9.35;8.45;;;;;;;14.58;93.35;97757.00;5089301;28;20020;-65
2023/10/20 08:31:07;;;;;;;9.85;8.93;;;;;;;14.59;93.57;97766.16;5089395;28;20468;-65
2023/10/20 08:33:33;;;;;;;8.77;7.97;;;;;;;14.54;93.19;97771.97;5090212;28;20030;-65
2023/10/20 08:36:07;;;;;;;8.98;8.07;;;;;;;14.54;93.44;97766.41;5092239;28;20028;-65
2023/10/20 08:38:33;;;;;;;8.75;7.90;;;;;;;14.52;93.81;97763.16;5089528;28;20040;-66
2023/10/20 08:40:58;;;;;;;10.80;8.93;;;;;;;14.55;93.67;97765.25;5089762;28;20074;-65
2023/10/20 08:43:25;;;;;;;8.88;7.97;;;;;;;14.55;93.58;97759.69;5089059;28;20434;-65
2023/10/20 08:45:51;;;;;;;8.32;7.57;;;;;;;14.53;93.72;97757.22;5089198;28;20032;-65
2023/10/20 08:48:17;;;;;;;8.15;7.35;;;;;;;14.55;93.36;97754.09;5089298;28;20081;-65
2023/10/20 08:50:43;;;;;;;8.50;7.50;;;;;;;14.59;93.36;97763.38;5088357;28;20032;-65
2023/10/20 08:53:13;;;;;;;8.90;7.35;;;;;;;14.55;92.79;97749.31;5092402;28;20032;-65
2023/10/20 08:55:38;;;;;;;5.90;5.40;;;;;;;14.49;92.94;97765.50;5090605;28;20054;-65
2023/10/20 08:58:03;;;;;;;7.05;6.35;;;;;;;14.49;93.17;97759.09;5088492;28;20024;-65
2023/10/20 09:00:30;;;;;;;7.30;6.60;;;;;;;14.45;92.83;97756.16;5089733;28;20433;-65
2023/10/20 09:02:59;;;;;;;7.70;6.95;;;;;;;14.44;93.02;97760.13;5087765;28;20032;-65
2023/10/20 09:05:25;;;;;;;8.63;6.47;;;;;;;14.44;92.95;97757.34;5089047;28;20050;-65
2023/10/20 09:07:54;;;;;;;7.22;6.53;;;;;;;14.46;92.43;97760.59;5089306;28;20024;-66
2023/10/20 09:10:20;;;;;;;7.40;5.38;;;;;;;14.43;91.99;97757.72;5089475;28;20032;-65
2023/10/20 09:12:45;;;;;;;5.35;4.85;;;;;;;14.45;92.02;97756.16;5091460;28;20040;-65
2023/10/20 09:15:13;;;;;;;5.70;5.18;;;;;;;14.44;91.89;97757.34;5088861;28;20032;-65
2023/10/20 09:17:38;;;;;;;5.32;4.82;;;;;;;14.44;91.78;97762.13;5097191;28;20026;-63
2023/10/20 09:20:11;;;;;;;5.30;4.80;;;;;;;14.44;91.41;97751.75;5093451;28;20040;-65
2023/10/20 09:22:37;;;;;;;4.43;4.00;;;;;;;14.43;90.89;97752.13;5099119;28;20102;-64
2023/10/20 09:25:10;;;;;;;4.50;3.88;;;;;;;14.43;90.82;97739.00;5091366;28;20047;-65
2023/10/20 09:27:35;;;;;;;;;;;;;;;14.49;90.71;97732.00;5100161;28;20036;-65
2023/10/20 09:30:05;;;;;;;3.92;3.50;;;;;;;14.32;90.33;97740.66;5089934;28;20491;-65
2023/10/20 09:32:30;;;;;;;4.22;3.10;;;;;;;14.29;90.43;97749.72;5099474;28;20020;-64
2023/10/20 09:34:59;;;;;;;4.03;3.15;;;;;;;14.25;90.87;97755.19;5092609;28;20509;-65
2023/10/20 09:37:28;;;;;;;3.63;2.83;;;;;;;14.22;90.60;97747.53;5088190;28;20505;-65
2023/10/20 09:39:59;;;;;;;3.75;2.92;;;;;;;14.21;90.49;97753.47;5087306;28;20103;-65
2023/10/20 09:42:26;;;;;;;3.28;2.60;;;;;;;14.23;90.80;97745.56;5089564;28;20036;-64
2023/10/20 09:45:12;;;;;;;2.95;2.65;;;;;;;14.25;90.87;97741.25;5106630;28;20131;-66
2023/10/20 09:47:45;;;;;;;2.70;2.50;;;;;;;14.14;90.49;97739.28;5110397;28;20023;-63
2023/10/20 09:50:17;;;;;;;4.50;2.65;;;;;;;14.19;91.18;97736.28;5105278;28;20030;-64
2023/10/20 09:52:47;;;;;;;3.60;3.00;;;;;;;14.20;91.06;97743.47;5103262;28;20035;-65
2023/10/20 09:55:16;;;;;;;2.72;2.50;;;;;;;14.19;90.71;97744.66;5096873;28;20028;-64
2023/10/20 09:57:42;;;;;;;2.78;2.30;;;;;;;14.17;89.89;97730.22;5089667;28;20387;-64
2023/10/20 10:00:08;;;;;;;2.50;2.30;;;;;;;14.17;90.72;97735.81;5089319;28;20024;-64
2023/10/20 10:02:34;;;;;;;2.38;2.17;;;;;;;14.17;90.79;97738.59;5089546;28;20035;-64
2023/10/20 10:05:00;;;;;;;2.60;2.40;;;;;;;14.21;90.60;97743.13;5092277;28;20038;-65
2023/10/20 10:07:35;;;;;;;3.05;2.25;;;;;;;14.23;90.64;97740.00;5102081;28;20046;-65
2023/10/20 10:10:02;;;;;;;2.72;2.45;;;;;;;14.22;90.55;97739.16;5088941;28;20043;-65
2023/10/20 10:12:28;;;;;;;2.65;2.00;;;;;;;14.20;90.52;97740.69;5093329;28;20032;-65
2023/10/20 10:15:12;;;;;;;3.20;2.45;;;;;;;14.21;90.67;97733.94;5090371;28;20032;-65
2023/10/20 10:17:51;;;;;;;2.78;2.30;;;;;;;14.20;90.74;97724.75;5093171;28;20032;-65
2023/10/20 10:20:43;;;;;;;2.70;2.38;;;;;;;14.28;90.81;97730.56;5092063;28;20059;-65
2023/10/20 10:23:14;;;;;;;2.08;1.92;;;;;;;14.24;90.58;97731.25;5094138;28;20024;-65
2023/10/20 10:25:42;;;;;;;2.00;1.90;;;;;;;14.23;90.91;97724.06;5105255;28;20040;-65
2023/10/20 10:28:12;;;;;;;1.80;1.70;;;;;;;14.22;91.17;97728.00;5097972;28;20486;-65
2023/10/20 10:30:38;;;;;;;2.33;2.08;;;;;;;14.26;90.84;97722.53;5112707;28;20028;-65
2023/10/20 10:33:06;;;;;;;2.15;1.95;;;;;;;14.26;91.04;97716.94;5110912;28;20024;-65
2023/10/20 10:35:32;;;;;;;2.42;1.80;;;;;;;14.24;90.81;97710.91;5111083;28;20028;-65
2023/10/20 10:37:57;;;;;;;2.13;1.83;;;;;;;14.25;91.35;97706.97;5107182;28;20030;-66
2023/10/20 10:40:23;;;;;;;2.25;2.05;;;;;;;14.28;91.34;97706.25;5094652;28;20097;-65
2023/10/20 10:42:50;;;;;;;2.20;2.00;;;;;;;14.30;91.73;97701.13;5094537;28;20546;-65
2023/10/20 10:45:34;;;;;;;1.75;1.65;;;;;;;14.33;91.71;97700.41;5095219;28;20439;-64
2023/10/20 10:48:05;;;;;;;1.85;1.75;;;;;;;14.35;91.78;97688.91;5096680;28;20066;-64
2023/10/20 10:50:32;;;;;;;2.22;1.70;;;;;;;14.33;91.63;97692.03;5100248;28;20084;-66
2023/10/20 10:52:59;;;;;;;1.65;1.55;;;;;;;14.35;91.97;97686.94;5091409;28;20494;-65
2023/10/20 10:55:25;;;;;;;2.17;1.50;;;;;;;14.35;91.76;97686.94;5092144;28;20051;-64
2023/10/20 10:57:51;;;;;;;1.77;1.38;;;;;;;14.37;91.48;97683.78;5093979;28;20537;-63
2023/10/20 11:00:17;;;;;;;2.65;1.30;;;;;;;14.38;91.59;97683.44;5100930;28;20119;-63
2023/10/20 11:02:48;;;;;;;2.75;1.40;;;;;;;14.34;91.82;97662.97;5100463;28;20027;-64
2023/10/20 11:05:15;;;;;;;2.50;1.65;;;;;;;14.36;91.61;97668.22;5107008;28;20019;-64
2023/10/20 11:07:43;;;;;;;1.85;1.67;;;;;;;14.39;91.46;97659.94;5092592;28;20039;-64
2023/10/20 11:10:09;;;;;;;1.70;1.60;;;;;;;14.40;91.49;97644.00;5089325;28;20031;-63
2023/10/20 11:12:35;;;;;;;2.40;1.55;;;;;;;14.44;91.53;97651.31;5094984;28;20028;-64
2023/10/20 11:15:00;;;;;;;2.22;1.77;;;;;;;14.41;91.38;97656.78;5111453;28;20115;-64
2023/10/20 11:17:27;;;;;;;2.90;2.08;;;;;;;14.41;91.99;97657.59;5099995;28;20027;-65
2023/10/20 11:19:53;;;;;;;1.90;1.80;;;;;;;14.40;91.99;97642.03;5101441;28;20546;-65
2023/10/20 11:22:18;;;;;;;2.83;2.58;;;;;;;14.44;92.26;97630.97;5112165;28;20111;-65
2023/10/20 11:24:53;;;;;;;2.83;2.60;;;;;;;14.43;92.20;97638.53;5108984;28;20031;-65
2023/10/20 11:27:19;;;;;;;3.28;3.00;;;;;;;14.42;92.28;97639.72;5091009;28;20044;-65
2023/10/20 11:29:45;;;;;;;2.85;2.65;;;;;;;14.41;92.52;97632.47;5091349;28;20046;-65
2023/10/20 11:32:13;;;;;;;4.00;3.58;;;;;;;14.39;92.80;97623.66;5093412;28;20526;-65
2023/10/20 11:34:39;;;;;;;3.58;3.28;;;;;;;14.42;93.00;97624.91;5091789;28;20093;-64
2023/10/20 11:37:05;;;;;;;3.55;3.25;;;;;;;14.41;93.07;97621.31;5094213;28;20108;-65
2023/10/20 11:39:32;;;;;;;3.97;3.70;;;;;;;14.40;93.27;97627.28;5106623;28;20032;-66
2023/10/20 11:41:58;;;;;;;4.00;3.70;;;;;;;14.39;93.58;97626.47;5090757;28;20394;-66
2023/10/20 11:44:26;;;;;;;4.07;3.78;;;;;;;14.41;93.77;97621.31;5092258;28;20072;-65
2023/10/20 11:46:53;;;;;;;4.25;3.95;;;;;;;14.45;93.83;97618.63;5111179;28;20031;-66
2023/10/20 11:49:23;;;;;;;4.32;4.03;;;;;;;14.48;93.61;97613.16;5098046;28;20081;-66
2023/10/20 11:51:48;;;;;;;4.63;4.32;;;;;;;14.49;93.57;97603.63;5090769;28;20077;-66
2023/10/20 11:54:14;;;;;;;4.53;4.22;;;;;;;14.48;93.66;97593.59;5092069;28;20024;-65
2023/10/20 11:56:40;;;;;;;4.80;4.50;;;;;;;14.50;93.56;97601.66;5092307;28;20468;-67
2023/10/20 11:59:06;;;;;;;4.55;4.25;;;;;;;14.53;93.30;97600.13;5090724;28;20039;-66